createdAt,value
2023-05-20T00:00:02.487Z,10.93
2023-05-20T00:01:03.296Z,10.87
2023-05-20T00:02:03.160Z,10.89
2023-05-20T00:03:03.272Z,10.91
2023-05-20T00:04:03.540Z,10.94
2023-05-20T00:05:03.089Z,10.91
2023-05-20T00:06:02.731Z,10.89
2023-05-20T00:07:02.602Z,10.90
2023-05-20T00:08:02.513Z,10.88
2023-05-20T00:09:02.639Z,10.81
2023-05-20T00:10:02.629Z,10.77
2023-05-20T00:11:03.351Z,10.81
2023-05-20T00:12:03.214Z,10.82
2023-05-20T00:13:03.138Z,10.78
2023-05-20T00:14:03.051Z,10.78
2023-05-20T00:15:03.237Z,10.76
2023-05-20T00:16:02.888Z,10.72
2023-05-20T00:17:02.909Z,10.69
2023-05-20T00:18:02.916Z,10.72
2023-05-20T00:19:02.939Z,10.74
2023-05-20T00:20:02.898Z,10.70
2023-05-20T00:21:02.890Z,10.74
2023-05-20T00:22:03.064Z,10.73
2023-05-20T00:23:03.077Z,10.72
2023-05-20T00:24:02.827Z,10.69
2023-05-20T00:25:03.034Z,10.68
2023-05-20T00:26:02.799Z,10.64
2023-05-20T00:27:02.684Z,10.61
2023-05-20T00:28:02.619Z,10.57
2023-05-20T00:29:02.547Z,10.55
2023-05-20T00:30:02.535Z,10.50
2023-05-20T00:31:03.174Z,10.51
2023-05-20T00:32:02.872Z,10.50
2023-05-20T00:33:02.922Z,10.49
2023-05-20T00:34:03.027Z,10.48
2023-05-20T00:35:02.841Z,10.45
2023-05-20T00:36:03.637Z,10.43
2023-05-20T00:37:03.671Z,10.37
2023-05-20T00:38:03.589Z,10.35
2023-05-20T00:39:03.509Z,10.32
2023-05-20T00:40:03.481Z,10.28
2023-05-20T00:41:03.267Z,10.27
2023-05-20T00:42:03.166Z,10.35
2023-05-20T00:43:03.134Z,10.39
2023-05-20T00:44:03.173Z,10.47
2023-05-20T00:45:03.007Z,10.46
2023-05-20T00:46:02.868Z,10.49
2023-05-20T00:47:02.646Z,10.45
2023-05-20T00:48:02.484Z,10.41
2023-05-20T00:49:02.594Z,10.33
2023-05-20T00:50:02.549Z,10.33
2023-05-20T00:51:03.202Z,10.36
2023-05-20T00:52:03.006Z,10.42
2023-05-20T00:53:02.776Z,10.47
2023-05-20T00:54:02.794Z,10.46
2023-05-20T00:55:02.875Z,10.43
2023-05-20T00:56:03.546Z,10.41
2023-05-20T00:57:03.617Z,10.37
2023-05-20T00:58:03.462Z,10.34
2023-05-20T00:59:03.623Z,10.30
2023-05-20T01:00:03.348Z,10.27
2023-05-20T01:01:02.783Z,10.23
2023-05-20T01:02:02.472Z,10.18
2023-05-20T01:03:02.689Z,10.14
2023-05-20T01:04:02.543Z,10.14
2023-05-20T01:05:02.494Z,10.13
2023-05-20T01:06:03.209Z,10.10
2023-05-20T01:07:03.058Z,10.07
2023-05-20T01:08:03.064Z,10.05
2023-05-20T01:09:03.081Z,10.02
2023-05-20T01:10:03.121Z,10.00
2023-05-20T01:11:02.782Z,9.99
2023-05-20T01:12:02.602Z,9.95
2023-05-20T01:13:02.635Z,9.93
2023-05-20T01:14:02.523Z,9.91
2023-05-20T01:15:02.583Z,9.87
2023-05-20T01:16:02.526Z,9.82
2023-05-20T01:17:02.960Z,9.79
2023-05-20T01:18:02.648Z,9.74
2023-05-20T01:19:02.903Z,9.72
2023-05-20T01:20:02.948Z,9.73
2023-05-20T01:21:03.445Z,9.75
2023-05-20T01:22:03.118Z,9.74
2023-05-20T01:23:03.357Z,9.70
2023-05-20T01:24:03.344Z,9.72
2023-05-20T01:25:03.077Z,9.68
2023-05-20T01:26:03.135Z,9.67
2023-05-20T01:27:03.161Z,9.66
2023-05-20T01:28:03.096Z,9.65
2023-05-20T01:29:03.705Z,9.58
2023-05-20T01:30:03.123Z,9.56
2023-05-20T01:31:03.769Z,9.58
2023-05-20T01:32:03.626Z,9.63
2023-05-20T01:33:03.325Z,9.64
2023-05-20T01:34:03.288Z,9.68
2023-05-20T01:35:03.234Z,9.69
2023-05-20T01:36:02.281Z,9.66
2023-05-20T01:37:02.762Z,9.65
2023-05-20T01:38:02.763Z,9.68
2023-05-20T01:39:02.749Z,9.65
2023-05-20T01:40:02.719Z,9.62
2023-05-20T01:41:02.637Z,9.61
2023-05-20T01:42:03.259Z,9.61
2023-05-20T01:43:02.931Z,9.55
2023-05-20T01:44:02.895Z,9.50
2023-05-20T01:45:02.825Z,9.45
2023-05-20T01:46:02.783Z,9.41
2023-05-20T01:47:03.536Z,9.41
2023-05-20T01:48:03.114Z,9.38
2023-05-20T01:49:02.813Z,9.38
2023-05-20T01:50:02.860Z,9.36
2023-05-20T01:51:03.163Z,9.35
2023-05-20T01:52:03.153Z,9.35
2023-05-20T01:53:03.130Z,9.34
2023-05-20T01:54:03.151Z,9.36
2023-05-20T01:55:03.173Z,9.37
2023-05-20T01:56:02.184Z,9.39
2023-05-20T01:57:02.432Z,9.37
2023-05-20T01:58:02.614Z,9.31
2023-05-20T01:59:02.536Z,9.32
2023-05-20T02:00:02.277Z,9.33
2023-05-20T02:01:02.356Z,9.31
2023-05-20T02:02:02.312Z,9.37
2023-05-20T02:03:02.978Z,9.38
2023-05-20T02:04:02.700Z,9.35
2023-05-20T02:05:02.732Z,9.31
2023-05-20T02:06:02.964Z,9.34
2023-05-20T02:07:03.029Z,9.41
2023-05-20T02:08:03.104Z,9.39
2023-05-20T02:09:03.017Z,9.40
2023-05-20T02:10:03.064Z,9.41
2023-05-20T02:11:02.278Z,9.45
2023-05-20T02:12:02.207Z,9.42
2023-05-20T02:13:02.596Z,9.31
2023-05-20T02:14:02.468Z,9.22
2023-05-20T02:15:02.419Z,9.16
2023-05-20T02:16:02.436Z,9.14
2023-05-20T02:17:02.289Z,9.14
2023-05-20T02:18:02.324Z,9.19
2023-05-20T02:19:02.881Z,9.23
2023-05-20T02:20:02.896Z,9.19
2023-05-20T02:21:02.594Z,9.21
2023-05-20T02:22:02.547Z,9.27
2023-05-20T02:23:02.461Z,9.30
2023-05-20T02:24:03.020Z,9.27
2023-05-20T02:25:02.489Z,9.26
2023-05-20T02:26:03.071Z,9.18
2023-05-20T02:27:03.672Z,9.13
2023-05-20T02:28:03.274Z,9.11
2023-05-20T02:29:03.190Z,9.08
2023-05-20T02:30:03.069Z,9.03
2023-05-20T02:31:02.697Z,8.98
2023-05-20T02:32:02.707Z,8.94
2023-05-20T02:33:02.933Z,8.90
2023-05-20T02:34:02.571Z,8.89
2023-05-20T02:35:03.120Z,8.90
2023-05-20T02:36:02.763Z,8.90
2023-05-20T02:37:02.676Z,8.88
2023-05-20T02:38:03.248Z,8.91
2023-05-20T02:39:03.011Z,8.91
2023-05-20T02:40:02.903Z,8.92
2023-05-20T02:41:02.773Z,8.90
2023-05-20T02:42:02.695Z,8.84
2023-05-20T02:43:03.096Z,8.81
2023-05-20T02:44:03.179Z,8.78
2023-05-20T02:45:02.954Z,8.74
2023-05-20T02:46:02.910Z,8.69
2023-05-20T02:47:02.772Z,8.72
2023-05-20T02:48:02.723Z,8.73
2023-05-20T02:49:02.696Z,8.75
2023-05-20T02:50:03.241Z,8.75
2023-05-20T02:51:02.323Z,8.76
2023-05-20T02:52:02.302Z,8.73
2023-05-20T02:53:02.566Z,8.72
2023-05-20T02:54:02.583Z,8.68
2023-05-20T02:55:02.604Z,8.69
2023-05-20T02:56:02.697Z,8.68
2023-05-20T02:57:02.644Z,8.69
2023-05-20T02:58:02.639Z,8.71
2023-05-20T02:59:02.592Z,8.73
2023-05-20T03:00:02.681Z,8.75
2023-05-20T03:01:01.762Z,8.73
2023-05-20T03:02:01.530Z,8.73
2023-05-20T03:03:02.082Z,8.72
2023-05-20T03:04:01.699Z,8.70
2023-05-20T03:05:01.763Z,8.66
2023-05-20T03:06:01.733Z,8.66
2023-05-20T03:07:01.676Z,8.63
2023-05-20T03:08:01.592Z,8.64
2023-05-20T03:09:01.586Z,8.67
2023-05-20T03:10:01.773Z,8.72
2023-05-20T03:11:01.655Z,8.78
2023-05-20T03:12:01.617Z,8.78
2023-05-20T03:13:01.538Z,8.76
2023-05-20T03:14:02.140Z,8.73
2023-05-20T03:15:01.891Z,8.69
2023-05-20T03:16:01.970Z,8.64
2023-05-20T03:17:01.858Z,8.66
2023-05-20T03:18:01.910Z,8.64
2023-05-20T03:19:01.825Z,8.63
2023-05-20T03:20:01.919Z,8.63
2023-05-20T03:21:02.625Z,8.64
2023-05-20T03:22:02.550Z,8.60
2023-05-20T03:23:02.478Z,8.61
2023-05-20T03:24:02.428Z,8.62
2023-05-20T03:25:02.794Z,8.64
2023-05-20T03:26:01.829Z,8.65
2023-05-20T03:27:01.762Z,8.66
2023-05-20T03:28:01.869Z,8.64
2023-05-20T03:29:01.711Z,8.64
2023-05-20T03:30:01.826Z,8.68
2023-05-20T03:31:02.328Z,8.75
2023-05-20T03:32:02.252Z,8.81
2023-05-20T03:33:01.831Z,8.81
2023-05-20T03:34:02.316Z,8.75
2023-05-20T03:35:01.880Z,8.69
2023-05-20T03:36:02.681Z,8.61
2023-05-20T03:37:02.520Z,8.57
2023-05-20T03:38:02.529Z,8.51
2023-05-20T03:39:02.995Z,8.48
2023-05-20T03:40:02.654Z,8.46
2023-05-20T03:41:02.388Z,8.47
2023-05-20T03:42:02.408Z,8.43
2023-05-20T03:43:02.625Z,8.43
2023-05-20T03:44:02.373Z,8.43
2023-05-20T03:45:02.389Z,8.43
2023-05-20T03:46:02.481Z,8.43
2023-05-20T03:47:02.612Z,8.43
2023-05-20T03:48:02.513Z,8.41
2023-05-20T03:49:02.427Z,8.41
2023-05-20T03:50:02.392Z,8.42
2023-05-20T03:51:02.111Z,8.41
2023-05-20T03:52:02.080Z,8.41
2023-05-20T03:53:01.828Z,8.41
2023-05-20T03:54:01.848Z,8.38
2023-05-20T03:55:01.965Z,8.41
2023-05-20T03:56:02.706Z,8.41
2023-05-20T03:57:02.796Z,8.41
2023-05-20T03:58:02.772Z,8.41
2023-05-20T03:59:02.687Z,8.41
2023-05-20T04:00:02.782Z,8.42
2023-05-20T04:01:02.122Z,8.37
2023-05-20T04:02:02.164Z,8.33
2023-05-20T04:03:02.068Z,8.30
2023-05-20T04:04:02.145Z,8.27
2023-05-20T04:05:02.146Z,8.24
2023-05-20T04:06:02.232Z,8.22
2023-05-20T04:07:02.232Z,8.23
2023-05-20T04:08:02.353Z,8.27
2023-05-20T04:09:02.182Z,8.29
2023-05-20T04:10:02.221Z,8.31
2023-05-20T04:11:02.258Z,8.31
2023-05-20T04:12:02.248Z,8.30
2023-05-20T04:13:02.325Z,8.28
2023-05-20T04:14:02.116Z,8.26
2023-05-20T04:15:01.787Z,8.27
2023-05-20T04:16:02.661Z,8.28
2023-05-20T04:17:02.649Z,8.29
2023-05-20T04:18:02.531Z,8.29
2023-05-20T04:19:02.522Z,8.29
2023-05-20T04:20:02.649Z,8.29
2023-05-20T04:21:02.258Z,8.30
2023-05-20T04:22:02.077Z,8.31
2023-05-20T04:23:01.776Z,8.35
2023-05-20T04:24:01.975Z,8.41
2023-05-20T04:25:02.074Z,8.48
2023-05-20T04:26:02.324Z,8.49
2023-05-20T04:27:02.302Z,8.48
2023-05-20T04:28:02.117Z,8.50
2023-05-20T04:29:02.072Z,8.51
2023-05-20T04:30:01.792Z,8.50
2023-05-20T04:31:02.724Z,8.51
2023-05-20T04:32:02.556Z,8.54
2023-05-20T04:33:02.668Z,8.62
2023-05-20T04:34:02.089Z,8.72
2023-05-20T04:35:02.104Z,8.71
2023-05-20T04:36:02.913Z,8.71
2023-05-20T04:37:02.750Z,8.70
2023-05-20T04:38:02.851Z,8.72
2023-05-20T04:39:02.840Z,8.79
2023-05-20T04:40:02.905Z,8.81
2023-05-20T04:41:02.599Z,8.83
2023-05-20T04:42:02.447Z,8.84
2023-05-20T04:43:02.493Z,8.89
2023-05-20T04:44:02.558Z,8.93
2023-05-20T04:45:02.518Z,8.93
2023-05-20T04:46:02.624Z,8.94
2023-05-20T04:47:02.272Z,8.96
2023-05-20T04:48:02.402Z,9.03
2023-05-20T04:49:02.108Z,9.04
2023-05-20T04:50:02.216Z,9.07
2023-05-20T04:51:02.993Z,9.09
2023-05-20T04:52:02.488Z,9.12
2023-05-20T04:53:02.540Z,9.17
2023-05-20T04:54:02.718Z,9.19
2023-05-20T04:55:02.795Z,9.20
2023-05-20T04:56:03.004Z,9.26
2023-05-20T04:57:02.836Z,9.27
2023-05-20T04:58:02.506Z,9.31
2023-05-20T04:59:02.607Z,9.37
2023-05-20T05:00:02.738Z,9.41
2023-05-20T05:01:03.118Z,9.47
2023-05-20T05:02:02.988Z,9.52
2023-05-20T05:03:03.124Z,9.55
2023-05-20T05:04:03.057Z,9.58
2023-05-20T05:05:02.971Z,9.67
2023-05-20T05:06:03.297Z,9.70
2023-05-20T05:07:03.208Z,9.71
2023-05-20T05:08:03.236Z,9.70
2023-05-20T05:09:03.162Z,9.70
2023-05-20T05:10:03.462Z,9.75
2023-05-20T05:11:02.293Z,9.80
2023-05-20T05:12:02.394Z,9.86
2023-05-20T05:13:02.479Z,9.91
2023-05-20T05:14:02.533Z,9.96
2023-05-20T05:15:02.609Z,10.01
2023-05-20T05:16:02.849Z,10.06
2023-05-20T05:17:02.995Z,10.12
2023-05-20T05:18:03.138Z,10.16
2023-05-20T05:19:03.313Z,10.18
2023-05-20T05:20:03.343Z,10.21
2023-05-20T05:21:03.388Z,10.26
2023-05-20T05:22:02.663Z,10.29
2023-05-20T05:23:02.817Z,10.34
2023-05-20T05:24:02.950Z,10.39
2023-05-20T05:25:03.054Z,10.42
2023-05-20T05:26:02.495Z,10.46
2023-05-20T05:27:02.694Z,10.47
2023-05-20T05:28:02.765Z,10.50
2023-05-20T05:29:02.876Z,10.54
2023-05-20T05:30:03.019Z,10.58
2023-05-20T05:31:03.184Z,10.62
2023-05-20T05:32:03.030Z,10.66
2023-05-20T05:33:02.930Z,10.72
2023-05-20T05:34:02.766Z,10.80
2023-05-20T05:35:02.759Z,10.85
2023-05-20T05:36:02.919Z,10.93
2023-05-20T05:37:02.789Z,11.02
2023-05-20T05:38:02.964Z,11.02
2023-05-20T05:39:02.885Z,11.03
2023-05-20T05:40:02.853Z,11.07
2023-05-20T05:41:02.668Z,11.14
2023-05-20T05:42:02.615Z,11.19
2023-05-20T05:43:02.276Z,11.25
2023-05-20T05:44:02.499Z,11.31
2023-05-20T05:45:02.028Z,11.39
2023-05-20T05:46:02.219Z,11.47
2023-05-20T05:47:03.029Z,11.51
2023-05-20T05:48:02.652Z,11.50
2023-05-20T05:49:02.710Z,11.55
2023-05-20T05:50:02.840Z,11.64
2023-05-20T05:51:02.976Z,11.71
2023-05-20T05:52:03.300Z,11.73
2023-05-20T05:53:03.161Z,11.76
2023-05-20T05:54:02.739Z,11.83
2023-05-20T05:55:02.896Z,11.91
2023-05-20T05:56:02.775Z,11.97
2023-05-20T05:57:03.650Z,12.06
2023-05-20T05:58:02.543Z,12.12
2023-05-20T05:59:02.688Z,12.15
2023-05-20T06:00:02.446Z,12.18
2023-05-20T06:01:02.354Z,12.22
2023-05-20T06:02:03.201Z,12.28
2023-05-20T06:03:03.225Z,12.33
2023-05-20T06:04:03.434Z,12.37
2023-05-20T06:05:03.318Z,12.39
2023-05-20T06:06:03.192Z,12.49
2023-05-20T06:07:03.046Z,12.59
2023-05-20T06:08:02.955Z,12.72
2023-05-20T06:09:03.159Z,12.79
2023-05-20T06:10:03.201Z,12.89
2023-05-20T06:11:03.310Z,12.98
2023-05-20T06:12:03.483Z,13.05
2023-05-20T06:13:03.317Z,13.11
2023-05-20T06:14:03.432Z,13.17
2023-05-20T06:15:03.157Z,13.23
2023-05-20T06:16:03.302Z,13.28
2023-05-20T06:17:03.445Z,13.28
2023-05-20T06:18:03.521Z,13.19
2023-05-20T06:19:03.901Z,13.18
2023-05-20T06:20:03.291Z,13.15
2023-05-20T06:21:03.460Z,13.13
2023-05-20T06:22:03.459Z,13.19
2023-05-20T06:23:03.257Z,13.25
2023-05-20T06:24:03.431Z,13.31
2023-05-20T06:25:03.213Z,13.44
2023-05-20T06:26:03.397Z,13.53
2023-05-20T06:27:03.313Z,13.57
2023-05-20T06:28:03.421Z,13.65
2023-05-20T06:29:03.634Z,13.76
2023-05-20T06:30:03.118Z,13.77
2023-05-20T06:31:03.374Z,13.71
2023-05-20T06:32:03.303Z,13.65
2023-05-20T06:33:03.368Z,13.61
2023-05-20T06:34:02.707Z,13.59
2023-05-20T06:35:02.942Z,13.58
2023-05-20T06:36:03.248Z,13.60
2023-05-20T06:37:02.848Z,13.65
2023-05-20T06:38:03.513Z,13.77
2023-05-20T06:39:03.166Z,13.87
2023-05-20T06:40:03.000Z,13.98
2023-05-20T06:41:03.153Z,14.12
2023-05-20T06:42:02.416Z,14.27
2023-05-20T06:43:02.644Z,14.37
2023-05-20T06:44:02.884Z,14.49
2023-05-20T06:45:02.413Z,14.52
2023-05-20T06:46:02.723Z,14.59
2023-05-20T06:47:02.851Z,14.69
2023-05-20T06:48:03.119Z,14.80
2023-05-20T06:49:03.283Z,14.90
2023-05-20T06:50:03.518Z,15.00
2023-05-20T06:51:03.016Z,15.09
2023-05-20T06:52:03.730Z,15.15
2023-05-20T06:53:03.222Z,15.18
2023-05-20T06:54:03.639Z,15.24
2023-05-20T06:55:03.466Z,15.33
2023-05-20T06:56:03.699Z,15.45
2023-05-20T06:57:03.333Z,15.49
2023-05-20T06:58:03.483Z,15.54
2023-05-20T06:59:03.416Z,15.61
2023-05-20T07:00:02.872Z,15.62
2023-05-20T07:01:03.215Z,15.63
2023-05-20T07:02:02.752Z,15.68
2023-05-20T07:03:02.924Z,15.76
2023-05-20T07:04:02.602Z,15.86
2023-05-20T07:05:02.655Z,15.98
2023-05-20T07:06:02.654Z,16.09
2023-05-20T07:07:01.985Z,16.11
2023-05-20T07:08:02.080Z,16.14
2023-05-20T07:09:02.397Z,16.16
2023-05-20T07:10:02.404Z,16.21
2023-05-20T07:11:02.150Z,16.28
2023-05-20T07:12:02.332Z,16.30
2023-05-20T07:13:02.551Z,16.32
2023-05-20T07:14:02.834Z,16.31
2023-05-20T07:15:02.791Z,16.31
2023-05-20T07:16:02.726Z,16.31
2023-05-20T07:17:02.730Z,16.30
2023-05-20T07:18:03.076Z,16.26
2023-05-20T07:19:03.008Z,16.29
2023-05-20T07:20:03.214Z,16.42
2023-05-20T07:21:03.206Z,16.55
2023-05-20T07:22:02.457Z,16.56
2023-05-20T07:23:02.065Z,16.60
2023-05-20T07:24:02.381Z,16.67
2023-05-20T07:25:02.684Z,16.77
2023-05-20T07:26:02.114Z,16.88
2023-05-20T07:27:02.285Z,16.95
2023-05-20T07:28:02.499Z,17.05
2023-05-20T07:29:02.728Z,17.10
2023-05-20T07:30:02.153Z,17.16
2023-05-20T07:31:02.098Z,17.25
2023-05-20T07:32:02.464Z,17.27
2023-05-20T07:33:02.750Z,17.24
2023-05-20T07:34:02.467Z,17.12
2023-05-20T07:35:02.729Z,17.05
2023-05-20T07:36:02.741Z,17.09
2023-05-20T07:37:03.098Z,17.21
2023-05-20T07:38:02.759Z,17.33
2023-05-20T07:39:05.708Z,17.34
2023-05-20T07:40:02.925Z,17.38
2023-05-20T07:41:03.124Z,17.43
2023-05-20T07:42:02.405Z,17.51
2023-05-20T07:43:02.269Z,17.65
2023-05-20T07:44:02.464Z,17.71
2023-05-20T07:45:02.418Z,17.75
2023-05-20T07:46:02.462Z,17.84
2023-05-20T07:47:02.518Z,17.93
2023-05-20T07:48:02.670Z,17.85
2023-05-20T07:49:02.697Z,17.74
2023-05-20T07:50:02.343Z,17.75
2023-05-20T07:51:02.443Z,17.85
2023-05-20T07:52:03.277Z,17.96
2023-05-20T07:53:02.602Z,17.99
2023-05-20T07:54:02.623Z,18.05
2023-05-20T07:55:02.677Z,18.07
2023-05-20T07:56:02.866Z,18.08
2023-05-20T07:57:01.961Z,18.14
2023-05-20T07:58:02.136Z,18.27
2023-05-20T07:59:02.324Z,18.38
2023-05-20T08:00:02.369Z,18.49
2023-05-20T08:01:02.329Z,18.61
2023-05-20T08:02:02.613Z,18.70
2023-05-20T08:03:02.993Z,18.83
2023-05-20T08:04:02.395Z,18.83
2023-05-20T08:05:02.681Z,18.77
2023-05-20T08:06:03.047Z,18.77
2023-05-20T08:07:02.856Z,18.82
2023-05-20T08:08:02.725Z,18.92
2023-05-20T08:09:02.849Z,18.91
2023-05-20T08:10:03.119Z,18.87
2023-05-20T08:11:02.711Z,18.85
2023-05-20T08:12:02.399Z,18.78
2023-05-20T08:13:02.685Z,18.77
2023-05-20T08:14:02.968Z,18.92
2023-05-20T08:15:02.787Z,19.12
2023-05-20T08:16:02.326Z,19.27
2023-05-20T08:17:03.212Z,19.44
2023-05-20T08:18:03.509Z,19.55
2023-05-20T08:19:03.381Z,19.75
2023-05-20T08:20:02.951Z,19.89
2023-05-20T08:21:03.096Z,20.01
2023-05-20T08:22:02.963Z,20.03
2023-05-20T08:23:03.061Z,20.07
2023-05-20T08:24:03.294Z,20.19
2023-05-20T08:25:03.470Z,20.27
2023-05-20T08:26:03.101Z,20.27
2023-05-20T08:27:03.339Z,20.31
2023-05-20T08:28:03.153Z,20.42
2023-05-20T08:29:03.404Z,20.51
2023-05-20T08:30:03.332Z,20.63
2023-05-20T08:31:03.500Z,20.57
2023-05-20T08:32:02.652Z,20.60
2023-05-20T08:33:02.880Z,20.68
2023-05-20T08:34:02.250Z,20.75
2023-05-20T08:35:02.538Z,20.83
2023-05-20T08:36:02.576Z,20.92
2023-05-20T08:37:02.664Z,21.07
2023-05-20T08:38:02.917Z,21.20
2023-05-20T08:39:02.414Z,21.30
2023-05-20T08:40:02.559Z,21.39
2023-05-20T08:41:04.056Z,21.52
2023-05-20T08:42:02.820Z,21.51
2023-05-20T08:43:02.621Z,21.39
2023-05-20T08:44:02.820Z,21.27
2023-05-20T08:45:02.620Z,21.28
2023-05-20T08:46:02.651Z,21.35
2023-05-20T08:47:03.292Z,21.45
2023-05-20T08:48:03.406Z,21.48
2023-05-20T08:49:03.670Z,21.45
2023-05-20T08:50:03.238Z,21.51
2023-05-20T08:51:03.412Z,21.58
2023-05-20T08:52:03.416Z,21.72
2023-05-20T08:53:03.520Z,21.73
2023-05-20T08:54:03.359Z,21.77
2023-05-20T08:55:02.827Z,21.90
2023-05-20T08:56:03.019Z,21.98
2023-05-20T08:57:03.266Z,21.94
2023-05-20T08:58:03.495Z,21.92
2023-05-20T08:59:03.010Z,21.91
2023-05-20T09:00:03.271Z,21.90
2023-05-20T09:01:03.507Z,21.83
2023-05-20T09:02:03.593Z,21.80
2023-05-20T09:03:03.602Z,21.90
2023-05-20T09:04:03.586Z,21.99
2023-05-20T09:05:03.130Z,22.02
2023-05-20T09:06:03.057Z,22.07
2023-05-20T09:07:03.088Z,22.15
2023-05-20T09:08:05.067Z,22.14
2023-05-20T09:09:02.607Z,22.20
2023-05-20T09:10:03.031Z,22.26
2023-05-20T09:11:02.957Z,22.22
2023-05-20T09:12:02.914Z,22.22
2023-05-20T09:13:03.144Z,22.20
2023-05-20T09:14:03.091Z,22.19
2023-05-20T09:15:02.685Z,22.10
2023-05-20T09:16:02.787Z,22.02
2023-05-20T09:17:03.628Z,21.97
2023-05-20T09:18:03.145Z,21.93
2023-05-20T09:19:03.550Z,21.93
2023-05-20T09:20:03.473Z,21.84
2023-05-20T09:21:03.698Z,21.82
2023-05-20T09:22:02.684Z,21.80
2023-05-20T09:23:02.220Z,21.78
2023-05-20T09:24:02.365Z,21.75
2023-05-20T09:25:02.791Z,21.73
2023-05-20T09:26:02.807Z,21.76
2023-05-20T09:27:02.738Z,21.77
2023-05-20T09:28:02.580Z,21.80
2023-05-20T09:29:02.697Z,21.88
2023-05-20T09:30:02.248Z,21.94
2023-05-20T09:31:02.290Z,22.00
2023-05-20T09:32:02.997Z,21.97
2023-05-20T09:33:02.973Z,21.92
2023-05-20T09:34:03.073Z,21.95
2023-05-20T09:35:02.974Z,21.97
2023-05-20T09:36:02.903Z,22.03
2023-05-20T09:37:02.757Z,22.14
2023-05-20T09:38:02.897Z,22.20
2023-05-20T09:39:02.947Z,22.25
2023-05-20T09:40:03.035Z,22.16
2023-05-20T09:41:03.239Z,22.10
2023-05-20T09:42:04.073Z,21.97
2023-05-20T09:43:03.079Z,21.88
2023-05-20T09:44:03.187Z,21.89
2023-05-20T09:45:03.097Z,21.91
2023-05-20T09:46:03.188Z,21.88
2023-05-20T09:47:03.247Z,21.90
2023-05-20T09:48:02.904Z,21.94
2023-05-20T09:49:02.959Z,21.95
2023-05-20T09:50:03.206Z,21.97
2023-05-20T09:51:03.310Z,22.01
2023-05-20T09:52:03.552Z,22.03
2023-05-20T09:53:03.515Z,22.01
2023-05-20T09:54:03.631Z,22.00
2023-05-20T09:55:03.496Z,21.98
2023-05-20T09:56:03.776Z,21.95
2023-05-20T09:57:03.629Z,22.05
2023-05-20T09:58:03.205Z,22.08
2023-05-20T09:59:03.227Z,21.93
2023-05-20T10:00:03.604Z,21.78
2023-05-20T10:01:03.740Z,21.77
2023-05-20T10:02:03.825Z,21.76
2023-05-20T10:03:03.684Z,21.79
2023-05-20T10:04:03.684Z,21.82
2023-05-20T10:05:03.741Z,21.79
2023-05-20T10:06:03.209Z,21.75
2023-05-20T10:07:03.130Z,21.65
2023-05-20T10:08:02.592Z,21.52
2023-05-20T10:09:02.858Z,21.39
2023-05-20T10:10:03.204Z,21.32
2023-05-20T10:11:03.122Z,21.31
2023-05-20T10:12:03.255Z,21.31
2023-05-20T10:13:03.173Z,21.34
2023-05-20T10:14:02.679Z,21.41
2023-05-20T10:15:03.215Z,21.47
2023-05-20T10:16:02.719Z,21.51
2023-05-20T10:17:03.756Z,21.54
2023-05-20T10:18:03.188Z,21.58
2023-05-20T10:19:03.530Z,21.58
2023-05-20T10:20:05.883Z,21.61
2023-05-20T10:21:03.721Z,21.65
2023-05-20T10:22:03.332Z,21.63
2023-05-20T10:23:03.228Z,21.63
2023-05-20T10:24:03.214Z,21.66
2023-05-20T10:25:03.060Z,21.69
2023-05-20T10:26:03.290Z,21.61
2023-05-20T10:27:03.841Z,21.59
2023-05-20T10:28:03.413Z,21.67
2023-05-20T10:29:03.802Z,21.80
2023-05-20T10:30:03.922Z,21.81
2023-05-20T10:31:03.357Z,21.74
2023-05-20T10:32:03.442Z,21.78
2023-05-20T10:33:03.840Z,21.83
2023-05-20T10:34:03.436Z,21.82
2023-05-20T10:35:03.522Z,21.84
2023-05-20T10:36:03.762Z,21.77
2023-05-20T10:37:03.007Z,21.70
2023-05-20T10:38:03.025Z,21.72
2023-05-20T10:39:03.166Z,21.72
2023-05-20T10:40:03.281Z,21.75
2023-05-20T10:41:03.632Z,21.72
2023-05-20T10:42:02.606Z,21.73
2023-05-20T10:43:02.982Z,21.75
2023-05-20T10:44:03.059Z,21.79
2023-05-20T10:45:03.150Z,21.89
2023-05-20T10:46:05.141Z,21.94
2023-05-20T10:47:23.606Z,21.96
2023-05-20T10:48:02.758Z,21.97
2023-05-20T10:49:03.364Z,21.94
2023-05-20T10:50:02.687Z,21.93
2023-05-20T10:51:02.758Z,21.93
2023-05-20T10:52:02.831Z,21.93
2023-05-20T10:53:03.051Z,21.94
2023-05-20T10:54:03.245Z,22.01
2023-05-20T10:55:03.267Z,22.02
2023-05-20T10:56:02.702Z,22.01
2023-05-20T10:57:02.918Z,22.03
2023-05-20T10:58:03.156Z,22.12
2023-05-20T10:59:03.208Z,22.24
2023-05-20T11:00:03.279Z,22.30
2023-05-20T11:01:03.010Z,22.39
2023-05-20T11:02:03.580Z,22.47
2023-05-20T11:03:03.737Z,22.55
2023-05-20T11:04:03.809Z,22.63
2023-05-20T11:05:03.824Z,22.64
2023-05-20T11:06:03.605Z,22.64
2023-05-20T11:07:03.010Z,22.75
2023-05-20T11:08:04.376Z,22.92
2023-05-20T11:09:03.093Z,23.05
2023-05-20T11:10:03.453Z,23.19
2023-05-20T11:11:03.424Z,23.30
2023-05-20T11:12:02.604Z,23.28
2023-05-20T11:13:03.055Z,23.29
2023-05-20T11:14:03.078Z,23.31
2023-05-20T11:15:02.988Z,23.20
2023-05-20T11:16:02.633Z,23.15
2023-05-20T11:17:03.320Z,23.09
2023-05-20T11:18:03.623Z,23.04
2023-05-20T11:19:03.200Z,22.96
2023-05-20T11:20:03.396Z,22.93
2023-05-20T11:21:03.511Z,23.05
2023-05-20T11:22:02.954Z,23.17
2023-05-20T11:23:03.036Z,23.12
2023-05-20T11:24:03.256Z,23.13
2023-05-20T11:25:03.264Z,23.09
2023-05-20T11:26:02.930Z,23.04
2023-05-20T11:27:03.484Z,23.03
2023-05-20T11:28:03.365Z,23.04
2023-05-20T11:29:03.563Z,23.14
2023-05-20T11:30:03.433Z,23.20
2023-05-20T11:31:03.011Z,23.17
2023-05-20T11:32:03.326Z,23.19
2023-05-20T11:33:03.663Z,23.24
2023-05-20T11:34:03.519Z,23.31
2023-05-20T11:35:03.664Z,23.35
2023-05-20T11:36:06.423Z,23.35
2023-05-20T11:37:03.542Z,23.41
2023-05-20T11:38:03.791Z,23.40
2023-05-20T11:39:03.366Z,23.45
2023-05-20T11:40:03.976Z,23.41
2023-05-20T11:41:03.799Z,23.34
2023-05-20T11:42:03.015Z,23.28
2023-05-20T11:43:02.802Z,23.25
2023-05-20T11:44:02.947Z,23.26
2023-05-20T11:45:03.034Z,23.28
2023-05-20T11:46:03.229Z,23.33
2023-05-20T11:47:03.429Z,23.32
2023-05-20T11:48:03.817Z,23.29
2023-05-20T11:49:03.645Z,23.29
2023-05-20T11:50:03.737Z,23.26
2023-05-20T11:51:03.472Z,23.32
2023-05-20T11:52:03.715Z,23.45
2023-05-20T11:53:03.557Z,23.57
2023-05-20T11:54:03.780Z,23.62
2023-05-20T11:55:03.806Z,23.62
2023-05-20T11:56:03.943Z,23.62
2023-05-20T11:57:05.649Z,23.62
2023-05-20T11:58:03.079Z,23.63
2023-05-20T11:59:03.194Z,23.62
2023-05-20T12:00:03.282Z,23.62
2023-05-20T12:01:17.894Z,23.59
2023-05-20T12:02:02.840Z,23.63
2023-05-20T12:03:03.089Z,23.67
2023-05-20T12:04:03.178Z,23.83
2023-05-20T12:05:02.966Z,23.92
2023-05-20T12:06:02.769Z,23.97
2023-05-20T12:07:02.904Z,24.14
2023-05-20T12:08:02.968Z,24.27
2023-05-20T12:09:03.220Z,24.31
2023-05-20T12:10:03.145Z,24.30
2023-05-20T12:11:03.099Z,24.29
2023-05-20T12:12:03.480Z,24.25
2023-05-20T12:13:03.003Z,24.23
2023-05-20T12:14:03.222Z,24.34
2023-05-20T12:15:03.364Z,24.43
2023-05-20T12:16:03.541Z,24.51
2023-05-20T12:17:02.958Z,24.48
2023-05-20T12:18:02.633Z,24.52
2023-05-20T12:19:02.848Z,24.59
2023-05-20T12:20:02.971Z,24.61
2023-05-20T12:21:02.753Z,24.55
2023-05-20T12:22:03.005Z,24.54
2023-05-20T12:23:03.113Z,24.53
2023-05-20T12:24:03.194Z,24.55
2023-05-20T12:25:02.661Z,24.52
2023-05-20T12:26:02.780Z,24.54
2023-05-20T12:27:03.191Z,24.51
2023-05-20T12:28:03.293Z,24.47
2023-05-20T12:29:03.206Z,24.43
2023-05-20T12:30:03.354Z,24.41
2023-05-20T12:31:02.780Z,24.37
2023-05-20T12:32:02.971Z,24.33
2023-05-20T12:33:02.977Z,24.24
2023-05-20T12:34:03.211Z,24.18
2023-05-20T12:35:02.569Z,24.21
2023-05-20T12:36:02.413Z,24.17
2023-05-20T12:37:03.367Z,24.07
2023-05-20T12:38:03.401Z,24.01
2023-05-20T12:39:02.864Z,23.89
2023-05-20T12:40:03.149Z,23.80
2023-05-20T12:41:03.046Z,23.70
2023-05-20T12:42:03.032Z,23.66
2023-05-20T12:43:02.934Z,23.68
2023-05-20T12:44:02.495Z,23.70
2023-05-20T12:45:02.826Z,23.84
2023-05-20T12:46:03.010Z,23.92
2023-05-20T12:47:03.265Z,23.86
2023-05-20T12:48:02.798Z,23.79
2023-05-20T12:49:03.093Z,23.77
2023-05-20T12:50:03.221Z,23.77
2023-05-20T12:51:03.067Z,23.76
2023-05-20T12:52:08.433Z,23.67
2023-05-20T12:53:03.109Z,23.54
2023-05-20T12:54:03.454Z,23.45
2023-05-20T12:55:02.845Z,23.32
2023-05-20T12:56:03.059Z,23.25
2023-05-20T12:57:02.953Z,23.23
2023-05-20T12:58:02.621Z,23.22
2023-05-20T12:59:02.991Z,23.20
2023-05-20T13:00:02.697Z,23.22